createdAt,value
2023-02-11T08:32:46.337Z,36.31
2023-02-11T08:32:57.665Z,36.15
2023-02-11T08:33:09.263Z,35.94
2023-02-11T08:33:20.565Z,35.86
2023-02-11T08:33:32.166Z,35.75
2023-02-11T08:33:43.497Z,35.71
2023-02-11T08:33:55.076Z,35.69
2023-02-11T08:34:06.415Z,35.69
2023-02-11T08:34:18.025Z,35.67
2023-02-11T08:34:29.356Z,35.65
2023-02-11T08:34:40.956Z,35.63
2023-02-11T08:34:52.285Z,35.60
2023-02-11T08:35:03.883Z,35.61
2023-02-11T08:35:15.188Z,35.59
2023-02-11T08:35:26.783Z,35.59
2023-02-11T08:35:38.092Z,35.57
2023-02-11T08:35:49.692Z,35.54
2023-02-11T08:36:01.009Z,35.54
2023-02-11T08:36:12.660Z,35.53
2023-02-11T08:36:23.951Z,35.53
2023-02-11T08:36:35.628Z,35.52
2023-02-11T08:36:46.924Z,35.51
2023-02-11T08:36:58.521Z,35.51
2023-02-11T08:37:09.897Z,35.49
2023-02-11T08:37:21.497Z,35.49
2023-02-11T08:37:33.187Z,35.49
2023-02-11T08:37:44.773Z,35.49
2023-02-11T08:37:56.148Z,35.49
2023-02-11T08:38:07.747Z,35.50
2023-02-11T08:38:19.093Z,35.47
2023-02-11T08:38:30.669Z,35.50
2023-02-11T08:38:41.991Z,35.49
2023-02-11T08:38:53.604Z,35.46
2023-02-11T08:39:18.014Z,35.49
2023-02-11T08:39:19.727Z,35.59
2023-02-11T08:39:27.472Z,35.58
2023-02-11T08:39:38.816Z,35.52
2023-02-11T08:39:50.407Z,35.49
2023-02-11T08:40:01.756Z,35.47
2023-02-11T08:40:13.337Z,35.48
2023-02-11T08:40:24.771Z,35.48
2023-02-11T08:40:36.387Z,35.48
2023-02-11T08:40:47.695Z,35.46
2023-02-11T08:40:59.276Z,35.47
2023-02-11T08:41:10.610Z,35.45
2023-02-11T08:41:22.224Z,35.44
2023-02-11T08:41:33.544Z,35.45
2023-02-11T08:41:45.115Z,35.46
2023-02-11T08:41:56.448Z,35.46
2023-02-11T08:42:08.041Z,35.47
2023-02-11T08:42:19.342Z,35.46
2023-02-11T08:42:30.917Z,35.46
2023-02-11T08:42:42.244Z,35.45
2023-02-11T08:42:53.822Z,35.46
2023-02-11T08:43:07.893Z,35.45
2023-02-11T08:43:15.165Z,35.54
2023-02-11T08:43:26.499Z,35.50
2023-02-11T08:43:38.068Z,35.47
2023-02-11T08:43:49.394Z,35.45
2023-02-11T08:44:00.975Z,35.44
2023-02-11T08:44:12.297Z,35.45
2023-02-11T08:44:23.918Z,35.47
2023-02-11T08:44:35.209Z,35.44
2023-02-11T08:44:46.800Z,35.45
2023-02-11T08:44:58.132Z,35.44
2023-02-11T08:45:09.706Z,35.44
2023-02-11T08:45:21.047Z,35.45
2023-02-11T08:45:32.691Z,35.46
2023-02-11T08:45:44.096Z,35.45
2023-02-11T08:45:55.811Z,35.46
2023-02-11T08:46:07.196Z,35.44
2023-02-11T08:46:18.870Z,35.47
2023-02-11T08:46:30.240Z,35.46
2023-02-11T08:46:41.846Z,35.45
2023-02-11T08:46:53.182Z,35.47
2023-02-11T08:47:04.765Z,35.47
2023-02-11T08:47:16.084Z,35.44
2023-02-11T08:47:27.678Z,35.47
2023-02-11T08:47:38.985Z,35.44
2023-02-11T08:47:50.589Z,35.47
2023-02-11T08:48:01.910Z,35.43
2023-02-11T08:48:13.495Z,35.45
2023-02-11T08:48:24.838Z,35.46
2023-02-11T08:48:36.412Z,35.45
2023-02-11T08:48:47.770Z,35.45
2023-02-11T08:48:59.366Z,35.46
2023-02-11T08:49:10.702Z,35.46
2023-02-11T08:49:22.323Z,35.48
2023-02-11T08:49:33.638Z,35.46
2023-02-11T08:49:45.243Z,35.43
2023-02-11T08:49:56.569Z,35.46
2023-02-11T08:50:08.151Z,35.45
2023-02-11T08:50:19.485Z,35.46
2023-02-11T08:50:31.078Z,35.45
2023-02-11T08:50:42.410Z,35.46
2023-02-11T08:50:53.994Z,35.43
2023-02-11T08:51:05.305Z,35.44
2023-02-11T08:51:16.900Z,35.44
2023-02-11T08:51:28.210Z,35.45
2023-02-11T08:51:39.773Z,35.47
2023-02-11T08:51:51.146Z,35.45
2023-02-11T08:52:02.729Z,35.46
2023-02-11T08:52:14.084Z,35.47
2023-02-11T08:52:25.698Z,35.44
2023-02-11T08:52:37.008Z,35.48
2023-02-11T08:52:48.590Z,35.45
2023-02-11T08:52:59.922Z,35.44
2023-02-11T08:53:11.508Z,35.41
2023-02-11T08:53:22.828Z,35.44
2023-02-11T08:53:34.424Z,35.43
2023-02-11T08:53:45.766Z,35.46
2023-02-11T08:53:57.351Z,35.45
2023-02-11T08:54:08.680Z,35.44
2023-02-11T08:54:20.345Z,35.45
2023-02-11T08:54:31.634Z,35.43
2023-02-11T08:54:43.227Z,35.42
2023-02-11T08:54:54.556Z,35.46
2023-02-11T08:55:06.159Z,35.42
2023-02-11T08:55:17.482Z,35.44
2023-02-11T08:55:29.062Z,35.44
2023-02-11T08:55:40.400Z,35.44
2023-02-11T08:55:52.372Z,35.43
2023-02-11T08:56:04.098Z,35.43
2023-02-11T08:56:15.462Z,35.40
2023-02-11T08:56:27.050Z,35.43
2023-02-11T08:56:38.394Z,35.44
2023-02-11T08:56:49.946Z,35.42
2023-02-11T08:57:01.262Z,35.43
2023-02-11T08:57:12.844Z,35.45
2023-02-11T08:57:24.298Z,35.43
2023-02-11T08:57:35.899Z,35.42
2023-02-11T08:57:47.205Z,35.42
2023-02-11T08:57:58.778Z,35.41
2023-02-11T08:58:10.098Z,35.42
2023-02-11T08:58:21.703Z,35.41
2023-02-11T08:58:33.036Z,35.44
2023-02-11T08:58:44.625Z,35.42
2023-02-11T08:58:55.921Z,35.41
2023-02-11T08:59:07.499Z,35.43
2023-02-11T08:59:18.850Z,35.43
2023-02-11T08:59:30.449Z,35.42
2023-02-11T08:59:41.770Z,35.42
2023-02-11T08:59:53.355Z,35.41
2023-02-11T09:00:04.740Z,35.41
2023-02-11T09:00:16.285Z,35.42
2023-02-11T09:00:27.613Z,35.42
2023-02-11T09:00:39.185Z,35.42
2023-02-11T09:00:51.018Z,35.42
2023-02-11T09:01:02.747Z,35.43
2023-02-11T09:01:14.115Z,35.41
2023-02-11T09:01:25.794Z,35.42
2023-02-11T09:01:37.305Z,35.43
2023-02-11T09:01:49.048Z,35.40
2023-02-11T09:02:00.533Z,35.40
2023-02-11T09:02:12.112Z,35.41
2023-02-11T09:02:23.525Z,35.39
2023-02-11T09:02:35.205Z,35.39
2023-02-11T09:02:46.547Z,35.40
2023-02-11T09:02:58.201Z,35.38
2023-02-11T09:03:09.526Z,35.39
2023-02-11T09:03:21.122Z,35.38
2023-02-11T09:03:32.455Z,35.39
2023-02-11T09:03:44.021Z,35.39
2023-02-11T09:03:55.354Z,35.39
2023-02-11T09:04:06.967Z,35.40
2023-02-11T09:04:18.321Z,35.39
2023-02-11T09:04:29.927Z,35.39
2023-02-11T09:04:41.246Z,35.40
2023-02-11T09:04:52.812Z,35.37
2023-02-11T09:05:04.158Z,35.40
2023-02-11T09:05:15.738Z,35.35
2023-02-11T09:05:27.058Z,35.40
2023-02-11T09:05:38.638Z,35.38
2023-02-11T09:05:49.985Z,35.38
2023-02-11T09:06:01.726Z,35.36
2023-02-11T09:06:13.031Z,35.38
2023-02-11T09:06:24.628Z,35.36
2023-02-11T09:06:35.949Z,35.36
2023-02-11T09:06:47.565Z,35.34
2023-02-11T09:06:58.907Z,35.37
2023-02-11T09:07:10.494Z,35.35
2023-02-11T09:07:21.832Z,35.35
2023-02-11T09:07:33.394Z,35.36
2023-02-11T09:07:44.719Z,35.35
2023-02-11T09:07:56.300Z,35.33
2023-02-11T09:08:07.615Z,35.37
2023-02-11T09:08:19.178Z,35.34
2023-02-11T09:08:30.492Z,35.35
2023-02-11T09:08:43.710Z,35.35
2023-02-11T09:08:52.398Z,35.37
2023-02-11T09:09:03.728Z,35.36
2023-02-11T09:09:15.307Z,35.35
2023-02-11T09:09:26.632Z,35.35
2023-02-11T09:09:38.237Z,35.35
2023-02-11T09:09:49.567Z,35.35
2023-02-11T09:10:01.142Z,35.33
2023-02-11T09:10:12.458Z,35.33
2023-02-11T09:10:24.064Z,35.34
2023-02-11T09:10:35.382Z,35.32
2023-02-11T09:10:46.974Z,35.34
2023-02-11T09:10:58.294Z,35.34
2023-02-11T09:11:09.879Z,35.33
2023-02-11T09:11:21.206Z,35.32
2023-02-11T09:11:32.818Z,35.30
2023-02-11T09:11:44.158Z,35.31
2023-02-11T09:11:55.748Z,35.32
2023-02-11T09:12:07.085Z,35.32
2023-02-11T09:12:18.679Z,35.31
2023-02-11T09:12:30.004Z,35.33
2023-02-11T09:12:41.588Z,35.32
2023-02-11T09:12:52.948Z,35.31
2023-02-11T09:13:04.499Z,35.30
2023-02-11T09:13:15.806Z,35.31
2023-02-11T09:13:27.392Z,35.32
2023-02-11T09:13:38.716Z,35.30
2023-02-11T09:13:53.261Z,35.30
2023-02-11T09:14:01.255Z,35.35
2023-02-11T09:14:12.596Z,35.33
2023-02-11T09:14:24.180Z,35.31
2023-02-11T09:14:35.491Z,35.30
2023-02-11T09:14:47.080Z,35.32
2023-02-11T09:14:58.404Z,35.31
2023-02-11T09:15:10.020Z,35.29
2023-02-11T09:15:21.376Z,35.28
2023-02-11T09:15:32.952Z,35.29
2023-02-11T09:15:44.290Z,35.30
2023-02-11T09:15:55.856Z,35.27
2023-02-11T09:16:07.162Z,35.28
2023-02-11T09:16:18.776Z,35.28
2023-02-11T09:16:30.089Z,35.29
2023-02-11T09:16:41.713Z,35.28
2023-02-11T09:16:53.079Z,35.28
2023-02-11T09:17:04.791Z,35.26
2023-02-11T09:17:16.119Z,35.29
2023-02-11T09:17:27.680Z,35.28
2023-02-11T09:17:39.026Z,35.27
2023-02-11T09:17:50.607Z,35.27
2023-02-11T09:18:01.972Z,35.26
2023-02-11T09:18:13.542Z,35.27
2023-02-11T09:18:24.906Z,35.27
2023-02-11T09:18:36.501Z,35.25
2023-02-11T09:18:47.918Z,35.30
2023-02-11T09:18:59.480Z,35.24
2023-02-11T09:19:10.797Z,35.25
2023-02-11T09:19:22.356Z,35.26
2023-02-11T09:19:33.711Z,35.26
2023-02-11T09:19:45.384Z,35.25
2023-02-11T09:19:56.700Z,35.26
2023-02-11T09:20:10.706Z,35.25
2023-02-11T09:20:20.049Z,35.27
2023-02-11T09:20:31.614Z,35.26
2023-02-11T09:20:42.954Z,35.28
2023-02-11T09:20:54.517Z,35.24
2023-02-11T09:21:05.838Z,35.26
2023-02-11T09:21:17.419Z,35.25
2023-02-11T09:21:28.745Z,35.25
2023-02-11T09:21:40.352Z,35.24
2023-02-11T09:21:51.707Z,35.25
2023-02-11T09:22:03.291Z,35.25
2023-02-11T09:22:14.610Z,35.27
2023-02-11T09:22:26.184Z,35.23
2023-02-11T09:22:37.507Z,35.25
2023-02-11T09:22:49.083Z,35.22
2023-02-11T09:23:00.397Z,35.23
2023-02-11T09:23:11.972Z,35.23
2023-02-11T09:23:23.292Z,35.23
2023-02-11T09:23:34.871Z,35.25
2023-02-11T09:23:46.177Z,35.24
2023-02-11T09:23:57.763Z,35.21
2023-02-11T09:24:09.157Z,35.21
2023-02-11T09:24:20.730Z,35.21
2023-02-11T09:24:32.032Z,35.23
2023-02-11T09:24:43.616Z,35.22
2023-02-11T09:24:54.985Z,35.21
2023-02-11T09:25:06.519Z,35.23
2023-02-11T09:25:17.845Z,35.22
2023-02-11T09:25:29.424Z,35.20
2023-02-11T09:25:40.779Z,35.21
2023-02-11T09:25:52.719Z,35.21
2023-02-11T09:26:05.108Z,35.18
2023-02-11T09:26:15.018Z,35.17
2023-02-11T09:26:26.605Z,35.20
2023-02-11T09:26:37.921Z,35.22
2023-02-11T09:26:49.520Z,35.19
2023-02-11T09:27:00.825Z,35.19
2023-02-11T09:27:12.393Z,35.22
2023-02-11T09:27:23.708Z,35.19
2023-02-11T09:27:35.293Z,35.18
2023-02-11T09:27:46.625Z,35.19
2023-02-11T09:27:58.275Z,35.18
2023-02-11T09:28:09.765Z,35.19
2023-02-11T09:28:21.489Z,35.18
2023-02-11T09:28:32.882Z,35.18
2023-02-11T09:28:44.488Z,35.17
2023-02-11T09:28:55.789Z,35.20
2023-02-11T09:29:07.359Z,35.18
2023-02-11T09:29:18.690Z,35.20
2023-02-11T09:29:30.267Z,35.18
2023-02-11T09:29:41.579Z,35.16
2023-02-11T09:29:53.190Z,35.17
2023-02-11T09:30:04.562Z,35.19
2023-02-11T09:30:16.141Z,35.18
2023-02-11T09:30:27.468Z,35.18
2023-02-11T09:30:39.203Z,35.18
2023-02-11T09:30:51.173Z,35.20
2023-02-11T09:31:03.113Z,35.17
2023-02-11T09:31:14.587Z,35.19
2023-02-11T09:31:26.367Z,35.17
2023-02-11T09:31:37.962Z,35.19
2023-02-11T09:31:49.775Z,35.19
2023-02-11T09:32:01.380Z,35.20
2023-02-11T09:32:13.188Z,35.18
2023-02-11T09:32:24.542Z,35.17
2023-02-11T09:32:36.141Z,35.18
2023-02-11T09:32:47.464Z,35.17
2023-02-11T09:32:59.062Z,35.17
2023-02-11T09:33:10.413Z,35.17
2023-02-11T09:33:21.989Z,35.16
2023-02-11T09:33:33.297Z,35.17
2023-02-11T09:33:44.901Z,35.17
2023-02-11T09:33:56.211Z,35.15
2023-02-11T09:34:07.808Z,35.17
2023-02-11T09:34:19.146Z,35.15
2023-02-11T09:34:30.731Z,35.15
2023-02-11T09:34:42.073Z,35.15
2023-02-11T09:34:53.668Z,35.16
2023-02-11T09:35:05.034Z,35.16
2023-02-11T09:35:16.573Z,35.15
2023-02-11T09:35:27.945Z,35.15
2023-02-11T09:35:39.514Z,35.15
2023-02-11T09:35:50.855Z,35.16
2023-02-11T09:36:02.428Z,35.17
2023-02-11T09:36:13.735Z,35.16
2023-02-11T09:36:25.337Z,35.14
2023-02-11T09:36:36.622Z,35.14
2023-02-11T09:36:48.208Z,35.14
2023-02-11T09:36:59.535Z,35.15
2023-02-11T09:37:11.144Z,35.13
2023-02-11T09:37:22.484Z,35.16
2023-02-11T09:37:36.920Z,35.16
2023-02-11T09:37:44.368Z,35.17
2023-02-11T09:37:55.679Z,35.14
2023-02-11T09:38:07.291Z,35.14
2023-02-11T09:38:18.627Z,35.18
2023-02-11T09:38:30.250Z,35.15
2023-02-11T09:38:41.594Z,35.15
2023-02-11T09:38:53.176Z,35.11
2023-02-11T09:39:04.527Z,35.13
2023-02-11T09:39:16.105Z,35.13
2023-02-11T09:39:27.469Z,35.14
2023-02-11T09:39:39.030Z,35.13
2023-02-11T09:39:50.382Z,35.16
2023-02-11T09:40:01.986Z,35.14
2023-02-11T09:40:13.283Z,35.15
2023-02-11T09:40:24.849Z,35.13
2023-02-11T09:40:36.168Z,35.11
2023-02-11T09:40:47.819Z,35.13
2023-02-11T09:40:59.102Z,35.15
2023-02-11T09:41:10.705Z,35.13
2023-02-11T09:41:22.042Z,35.14
2023-02-11T09:41:33.614Z,35.12
2023-02-11T09:41:44.955Z,35.13
2023-02-11T09:41:56.533Z,35.15
2023-02-11T09:42:07.871Z,35.14
2023-02-11T09:42:19.473Z,35.10
2023-02-11T09:42:30.806Z,35.13
2023-02-11T09:42:42.369Z,35.12
2023-02-11T09:42:53.715Z,35.12
2023-02-11T09:43:05.319Z,35.12
2023-02-11T09:43:16.651Z,35.12
2023-02-11T09:43:28.245Z,35.13
2023-02-11T09:43:39.600Z,35.15
2023-02-11T09:43:51.179Z,35.14
2023-02-11T09:44:02.503Z,35.13
2023-02-11T09:44:14.071Z,35.12
2023-02-11T09:44:25.385Z,35.11
2023-02-11T09:44:36.961Z,35.10
2023-02-11T09:44:48.325Z,35.11
2023-02-11T09:44:59.887Z,35.12
2023-02-11T09:45:11.215Z,35.12
2023-02-11T09:45:22.798Z,35.12
2023-02-11T09:45:34.113Z,35.14
2023-02-11T09:45:45.771Z,35.13
2023-02-11T09:45:57.119Z,35.11
2023-02-11T09:46:08.697Z,35.13
2023-02-11T09:46:20.084Z,35.10
2023-02-11T09:46:31.771Z,35.12
2023-02-11T09:46:43.161Z,35.12
2023-02-11T09:46:54.732Z,35.12
2023-02-11T09:47:06.049Z,35.11
2023-02-11T09:47:17.653Z,35.10
2023-02-11T09:47:28.972Z,35.11
2023-02-11T09:47:40.565Z,35.12
2023-02-11T09:47:51.881Z,35.13
2023-02-11T09:48:06.143Z,35.13
2023-02-11T09:48:15.568Z,35.14
2023-02-11T09:48:27.124Z,35.11
2023-02-11T09:48:38.442Z,35.12
2023-02-11T09:48:50.053Z,35.13
2023-02-11T09:49:01.366Z,35.11
2023-02-11T09:49:12.944Z,35.13
2023-02-11T09:49:24.271Z,35.12
2023-02-11T09:49:35.885Z,35.11
2023-02-11T09:49:47.199Z,35.11
2023-02-11T09:49:58.805Z,35.12
2023-02-11T09:50:10.157Z,35.12
2023-02-11T09:50:21.807Z,35.12
2023-02-11T09:50:33.144Z,35.10
2023-02-11T09:50:44.728Z,35.10
2023-02-11T09:50:56.056Z,35.10
2023-02-11T09:51:07.662Z,35.09
2023-02-11T09:51:18.994Z,35.10
2023-02-11T09:51:30.590Z,35.11
2023-02-11T09:51:41.919Z,35.11
2023-02-11T09:51:53.506Z,35.09
2023-02-11T09:52:04.811Z,35.10
2023-02-11T09:52:16.376Z,35.10
2023-02-11T09:52:27.681Z,35.12
2023-02-11T09:52:39.249Z,35.09
2023-02-11T09:52:50.560Z,35.10
2023-02-11T09:53:02.145Z,35.11
2023-02-11T09:53:13.492Z,35.09
2023-02-11T09:53:25.095Z,35.11
2023-02-11T09:53:36.444Z,35.12
2023-02-11T09:53:48.042Z,35.10
2023-02-11T09:54:00.940Z,35.09
2023-02-11T09:54:10.926Z,35.16
2023-02-11T09:54:22.516Z,35.10
2023-02-11T09:54:33.848Z,35.11
2023-02-11T09:54:45.452Z,35.11
2023-02-11T09:54:56.800Z,35.11
2023-02-11T09:55:08.403Z,35.10
2023-02-11T09:55:19.753Z,35.09
2023-02-11T09:55:31.345Z,35.11
2023-02-11T09:55:42.701Z,35.12
2023-02-11T09:55:54.314Z,35.12
2023-02-11T09:56:05.646Z,35.11
2023-02-11T09:56:17.226Z,35.08
2023-02-11T09:56:28.687Z,35.12
2023-02-11T09:56:40.247Z,35.10
2023-02-11T09:56:51.568Z,35.10
2023-02-11T09:57:03.157Z,35.13
2023-02-11T09:57:27.877Z,35.10
2023-02-11T09:57:29.027Z,35.22
2023-02-11T09:57:38.481Z,35.18
2023-02-11T09:57:50.076Z,35.13
2023-02-11T09:58:01.444Z,35.12
2023-02-11T09:58:12.980Z,35.12
2023-02-11T09:58:24.313Z,35.11
2023-02-11T09:58:35.934Z,35.09
2023-02-11T09:58:47.255Z,35.12
2023-02-11T09:58:58.946Z,35.08
2023-02-11T09:59:10.288Z,35.08
2023-02-11T09:59:21.884Z,35.10
2023-02-11T09:59:33.216Z,35.09
2023-02-11T09:59:44.819Z,35.12
2023-02-11T09:59:56.140Z,35.11
2023-02-11T10:00:07.736Z,35.10
2023-02-11T10:00:19.060Z,35.09
2023-02-11T10:00:30.628Z,35.10
2023-02-11T10:00:41.968Z,35.10
2023-02-11T10:00:53.722Z,35.08
2023-02-11T10:01:05.105Z,35.10
2023-02-11T10:01:17.872Z,35.11
2023-02-11T10:01:28.644Z,35.11
2023-02-11T10:01:40.311Z,35.09
2023-02-11T10:01:51.627Z,35.10
2023-02-11T10:02:03.177Z,35.06
2023-02-11T10:02:14.525Z,35.08
2023-02-11T10:02:26.101Z,35.08
2023-02-11T10:02:37.450Z,35.08
2023-02-11T10:02:49.039Z,35.10
2023-02-11T10:03:00.363Z,35.09
2023-02-11T10:03:11.944Z,35.08
2023-02-11T10:03:23.302Z,35.09
2023-02-11T10:03:34.891Z,35.10
2023-02-11T10:03:46.194Z,35.12
2023-02-11T10:03:57.864Z,35.10
2023-02-11T10:04:09.271Z,35.12
2023-02-11T10:04:20.916Z,35.09
2023-02-11T10:04:32.262Z,35.11
2023-02-11T10:04:43.935Z,35.11
2023-02-11T10:04:55.229Z,35.09
2023-02-11T10:05:06.822Z,35.09
2023-02-11T10:05:18.144Z,35.09
2023-02-11T10:05:29.738Z,35.09
2023-02-11T10:05:41.064Z,35.09
2023-02-11T10:05:52.685Z,35.11
2023-02-11T10:06:04.022Z,35.10
2023-02-11T10:06:15.613Z,35.08
2023-02-11T10:06:26.925Z,35.07
2023-02-11T10:06:38.502Z,35.09
2023-02-11T10:06:49.832Z,35.10
2023-02-11T10:07:01.405Z,35.05
2023-02-11T10:07:12.724Z,35.07
2023-02-11T10:07:24.327Z,35.08
2023-02-11T10:07:35.653Z,35.09
2023-02-11T10:07:47.221Z,35.06
2023-02-11T10:07:58.549Z,35.08
2023-02-11T10:08:10.132Z,35.09
2023-02-11T10:08:21.434Z,35.07
2023-02-11T10:08:33.014Z,35.08
2023-02-11T10:08:44.395Z,35.10
2023-02-11T10:08:55.935Z,35.08
2023-02-11T10:09:07.261Z,35.07
2023-02-11T10:09:18.859Z,35.08
2023-02-11T10:09:30.175Z,35.09
2023-02-11T10:09:41.787Z,35.09
2023-02-11T10:09:53.156Z,35.07
2023-02-11T10:10:04.773Z,35.09
2023-02-11T10:10:16.129Z,35.09
2023-02-11T10:10:27.712Z,35.08
2023-02-11T10:10:39.027Z,35.09
2023-02-11T10:10:51.045Z,35.08
2023-02-11T10:11:02.742Z,35.06
2023-02-11T10:11:29.666Z,35.07
2023-02-11T10:11:31.510Z,35.20
2023-02-11T10:11:37.969Z,35.21
2023-02-11T10:11:49.286Z,35.15
2023-02-11T10:12:00.917Z,35.13
2023-02-11T10:12:12.269Z,35.09
2023-02-11T10:12:23.860Z,35.10
2023-02-11T10:12:35.177Z,35.09
2023-02-11T10:12:46.758Z,35.08
2023-02-11T10:12:58.106Z,35.09
2023-02-11T10:13:09.700Z,35.08
2023-02-11T10:13:21.012Z,35.10
2023-02-11T10:13:32.588Z,35.08
2023-02-11T10:13:43.934Z,35.10
2023-02-11T10:13:55.493Z,35.07
2023-02-11T10:14:06.804Z,35.08
2023-02-11T10:14:18.384Z,35.08
2023-02-11T10:14:29.738Z,35.07
2023-02-11T10:14:41.308Z,35.07
2023-02-11T10:14:52.650Z,35.08
2023-02-11T10:15:04.199Z,35.06
2023-02-11T10:15:15.522Z,35.07
2023-02-11T10:15:27.197Z,35.07
2023-02-11T10:15:38.627Z,35.08
2023-02-11T10:15:50.277Z,35.07
2023-02-11T10:16:01.762Z,35.07
2023-02-11T10:16:13.416Z,35.07
2023-02-11T10:16:24.704Z,35.07
2023-02-11T10:16:36.296Z,35.05
2023-02-11T10:16:47.615Z,35.08
2023-02-11T10:16:59.215Z,35.05
2023-02-11T10:17:10.574Z,35.06
2023-02-11T10:17:22.159Z,35.07
2023-02-11T10:17:33.486Z,35.09
2023-02-11T10:17:45.071Z,35.05
2023-02-11T10:17:56.379Z,35.07
2023-02-11T10:18:07.974Z,35.07
2023-02-11T10:18:19.271Z,35.08
2023-02-11T10:18:30.923Z,35.06
2023-02-11T10:18:42.244Z,35.08
2023-02-11T10:18:53.852Z,35.09
2023-02-11T10:19:05.177Z,35.07
2023-02-11T10:19:16.757Z,35.07
2023-02-11T10:19:28.047Z,35.09
2023-02-11T10:19:39.633Z,35.06
2023-02-11T10:19:50.949Z,35.07
2023-02-11T10:20:02.576Z,35.08
2023-02-11T10:20:16.543Z,35.08
2023-02-11T10:20:24.043Z,35.15
2023-02-11T10:20:35.386Z,35.12
2023-02-11T10:20:46.986Z,35.12
2023-02-11T10:20:58.295Z,35.08
2023-02-11T10:21:09.867Z,35.09
2023-02-11T10:21:21.187Z,35.09
2023-02-11T10:21:32.780Z,35.08
2023-02-11T10:21:44.093Z,35.08
2023-02-11T10:21:55.680Z,35.08
2023-02-11T10:22:07.022Z,35.09
2023-02-11T10:22:18.670Z,35.09
2023-02-11T10:22:30.011Z,35.09
2023-02-11T10:22:41.593Z,35.10
2023-02-11T10:22:52.918Z,35.08
2023-02-11T10:23:04.475Z,35.06
2023-02-11T10:23:15.819Z,35.10
2023-02-11T10:23:27.385Z,35.06
2023-02-11T10:23:38.698Z,35.08
2023-02-11T10:23:50.294Z,35.10
2023-02-11T10:24:01.623Z,35.08
2023-02-11T10:24:13.232Z,35.08
2023-02-11T10:24:24.608Z,35.08
2023-02-11T10:24:36.198Z,35.06
2023-02-11T10:24:47.514Z,35.09
2023-02-11T10:24:59.088Z,35.07
2023-02-11T10:25:10.411Z,35.05
2023-02-11T10:25:22.033Z,35.08
2023-02-11T10:25:33.379Z,35.08
2023-02-11T10:25:45.520Z,35.08
2023-02-11T10:25:57.201Z,35.05
2023-02-11T10:26:08.576Z,35.07
2023-02-11T10:26:20.165Z,35.09
2023-02-11T10:26:31.479Z,35.07
2023-02-11T10:26:43.043Z,35.09
2023-02-11T10:26:54.340Z,35.07
2023-02-11T10:27:05.936Z,35.07
2023-02-11T10:27:17.256Z,35.07
2023-02-11T10:27:29.188Z,35.07
2023-02-11T10:27:40.484Z,35.10
2023-02-11T10:27:52.094Z,35.08
2023-02-11T10:28:03.461Z,35.09
2023-02-11T10:28:15.180Z,35.07
2023-02-11T10:28:26.540Z,35.09
2023-02-11T10:28:38.170Z,35.09
2023-02-11T10:28:49.498Z,35.10
2023-02-11T10:29:01.094Z,35.06
2023-02-11T10:29:12.429Z,35.08
2023-02-11T10:29:24.020Z,35.07
2023-02-11T10:29:35.342Z,35.09
2023-02-11T10:29:46.924Z,35.08
2023-02-11T10:29:58.283Z,35.12
2023-02-11T10:30:09.879Z,35.09
2023-02-11T10:30:21.201Z,35.08
2023-02-11T10:30:32.819Z,35.08
2023-02-11T10:30:44.275Z,35.09
2023-02-11T10:30:56.201Z,35.07
2023-02-11T10:31:08.024Z,35.07
2023-02-11T10:31:19.499Z,35.08
2023-02-11T10:31:31.496Z,35.10
2023-02-11T10:31:42.950Z,35.09
2023-02-11T10:31:56.587Z,35.10
2023-02-11T10:32:05.257Z,35.14
2023-02-11T10:32:16.538Z,35.12
2023-02-11T10:32:28.155Z,35.08
2023-02-11T10:32:39.466Z,35.08
2023-02-11T10:32:51.041Z,35.10
2023-02-11T10:33:02.357Z,35.10
2023-02-11T10:33:13.948Z,35.10
2023-02-11T10:33:25.306Z,35.08
2023-02-11T10:33:36.941Z,35.12
2023-02-11T10:33:48.234Z,35.11
2023-02-11T10:33:59.903Z,35.09
2023-02-11T10:34:11.224Z,35.11
2023-02-11T10:34:22.790Z,35.11
2023-02-11T10:34:34.111Z,35.07
2023-02-11T10:34:45.699Z,35.10
2023-02-11T10:34:57.055Z,35.09
2023-02-11T10:35:08.638Z,35.10
2023-02-11T10:35:19.989Z,35.09
2023-02-11T10:35:31.560Z,35.10
2023-02-11T10:35:42.902Z,35.09
2023-02-11T10:35:54.496Z,35.10
2023-02-11T10:36:05.802Z,35.11
2023-02-11T10:36:17.382Z,35.13
2023-02-11T10:36:28.692Z,35.09
2023-02-11T10:36:40.291Z,35.08
2023-02-11T10:36:51.597Z,35.09
2023-02-11T10:37:03.184Z,35.09
2023-02-11T10:37:14.496Z,35.10
2023-02-11T10:37:26.090Z,35.08
2023-02-11T10:37:37.560Z,35.09
2023-02-11T10:37:49.141Z,35.10
2023-02-11T10:38:00.437Z,35.09
2023-02-11T10:38:12.045Z,35.09
2023-02-11T10:38:23.356Z,35.08
2023-02-11T10:38:34.943Z,35.10
2023-02-11T10:38:46.293Z,35.11
2023-02-11T10:38:57.887Z,35.10
2023-02-11T10:39:09.211Z,35.09
2023-02-11T10:39:20.839Z,35.11
2023-02-11T10:39:32.166Z,35.10
2023-02-11T10:39:43.737Z,35.09
2023-02-11T10:39:55.074Z,35.09
2023-02-11T10:40:06.679Z,35.07
2023-02-11T10:40:17.962Z,35.09
2023-02-11T10:40:29.566Z,35.08
2023-02-11T10:40:40.933Z,35.10
2023-02-11T10:40:52.911Z,35.11
2023-02-11T10:41:04.675Z,35.06
2023-02-11T10:41:15.996Z,35.08
2023-02-11T10:41:27.576Z,35.07
2023-02-11T10:41:38.882Z,35.10
2023-02-11T10:41:50.463Z,35.08
2023-02-11T10:42:01.809Z,35.08
2023-02-11T10:42:13.440Z,35.10
2023-02-11T10:42:24.754Z,35.10
2023-02-11T10:42:36.338Z,35.10
2023-02-11T10:42:47.701Z,35.10
2023-02-11T10:42:59.296Z,35.11
2023-02-11T10:43:10.598Z,35.09
2023-02-11T10:43:22.187Z,35.09
2023-02-11T10:43:33.522Z,35.07
2023-02-11T10:43:45.105Z,35.10
2023-02-11T10:43:56.440Z,35.10
2023-02-11T10:44:08.030Z,35.08
2023-02-11T10:44:19.353Z,35.11
2023-02-11T10:44:30.950Z,35.08
2023-02-11T10:44:42.293Z,35.09
2023-02-11T10:44:53.862Z,35.08
2023-02-11T10:45:05.174Z,35.06
2023-02-11T10:45:16.753Z,35.06
2023-02-11T10:45:28.118Z,35.10
2023-02-11T10:45:39.681Z,35.08
2023-02-11T10:45:51.020Z,35.07
2023-02-11T10:46:02.653Z,35.09
2023-02-11T10:46:13.999Z,35.11
2023-02-11T10:46:25.649Z,35.09
2023-02-11T10:46:37.087Z,35.09
2023-02-11T10:46:48.752Z,35.10
2023-02-11T10:47:00.113Z,35.07
2023-02-11T10:47:11.687Z,35.06
2023-02-11T10:47:22.991Z,35.07
2023-02-11T10:47:34.568Z,35.09
2023-02-11T10:47:45.883Z,35.08
2023-02-11T10:47:57.460Z,35.10
2023-02-11T10:48:08.781Z,35.09
2023-02-11T10:48:20.380Z,35.10
2023-02-11T10:48:31.715Z,35.09
2023-02-11T10:48:43.468Z,35.08
2023-02-11T10:48:54.783Z,35.12
2023-02-11T10:49:06.374Z,35.09
2023-02-11T10:49:17.733Z,35.09
2023-02-11T10:49:29.310Z,35.09
2023-02-11T10:49:40.647Z,35.09
2023-02-11T10:49:52.238Z,35.07
2023-02-11T10:50:03.783Z,35.08
2023-02-11T10:50:15.422Z,35.09
2023-02-11T10:50:26.770Z,35.10
2023-02-11T10:50:38.388Z,35.08
2023-02-11T10:50:50.131Z,35.09
2023-02-11T10:51:01.895Z,35.11
2023-02-11T10:51:14.574Z,35.09
2023-02-11T10:51:23.935Z,35.13
2023-02-11T10:51:35.528Z,35.12
2023-02-11T10:51:46.844Z,35.10
2023-02-11T10:51:58.416Z,35.11
2023-02-11T10:52:09.759Z,35.10
2023-02-11T10:52:21.351Z,35.11
2023-02-11T10:52:32.683Z,35.11
2023-02-11T10:52:44.285Z,35.11
2023-02-11T10:52:55.620Z,35.07
2023-02-11T10:53:07.220Z,35.10
2023-02-11T10:53:18.520Z,35.09
2023-02-11T10:53:30.103Z,35.07
2023-02-11T10:53:41.421Z,35.10
2023-02-11T10:53:53.008Z,35.10
2023-02-11T10:54:04.327Z,35.09
2023-02-11T10:54:15.902Z,35.09
2023-02-11T10:54:27.234Z,35.09
2023-02-11T10:54:38.811Z,35.08
2023-02-11T10:54:50.130Z,35.10
2023-02-11T10:55:01.696Z,35.09
2023-02-11T10:55:13.009Z,35.10
2023-02-11T10:55:25.287Z,35.09
2023-02-11T10:55:36.882Z,35.06
2023-02-11T10:55:48.193Z,35.08
2023-02-11T10:55:59.776Z,35.08
2023-02-11T10:56:11.143Z,35.09
2023-02-11T10:56:22.692Z,35.09
2023-02-11T10:56:34.029Z,35.11
2023-02-11T10:56:45.610Z,35.12
2023-02-11T10:56:56.928Z,35.13
2023-02-11T10:57:08.521Z,35.13
2023-02-11T10:57:19.841Z,35.13
2023-02-11T10:57:31.422Z,35.12
2023-02-11T10:57:42.780Z,35.13
2023-02-11T10:57:54.364Z,35.11
2023-02-11T10:58:05.690Z,35.14
2023-02-11T10:58:17.275Z,35.13
2023-02-11T10:58:28.599Z,35.12
2023-02-11T10:58:40.171Z,35.10
2023-02-11T10:58:51.525Z,35.09
2023-02-11T10:59:03.130Z,35.10
2023-02-11T10:59:14.450Z,35.11
2023-02-11T10:59:26.034Z,35.11
2023-02-11T10:59:37.361Z,35.11
2023-02-11T10:59:48.988Z,35.10
2023-02-11T11:00:00.320Z,35.10
2023-02-11T11:00:11.883Z,35.08
2023-02-11T11:00:23.214Z,35.08